Time,TemperatureF,DewpointF,PressureIn,WindDirection,WindDirectionDegrees,WindSpeedMPH,WindSpeedGustMPH,Humidity,HourlyPrecipIn,Conditions,Clouds,dailyrainin,SoftwareType,DateUTC
2013-02-08 00:00:00,15.8,12.0,30.38,ESE,117,27.0,36.0,85,0.00,,,0.00,meteohub,2013-02-08 05:00:00,
2013-02-08 00:02:00,15.8,12.0,30.39,SE,141,22.0,37.0,85,0.00,,,0.00,meteohub,2013-02-08 05:02:00,
2013-02-08 00:04:00,16.0,12.6,30.37,SE,126,23.0,37.0,86,0.00,,,0.00,meteohub,2013-02-08 05:04:00,
2013-02-08 00:09:00,15.8,12.0,30.38,ESE,119,32.0,37.0,85,0.00,,,0.00,meteohub,2013-02-08 05:09:00,
2013-02-08 00:15:00,16.0,12.6,30.37,SE,135,2.0,37.0,86,0.00,,,0.00,meteohub,2013-02-08 05:15:00,
2013-02-08 00:20:00,16.3,12.6,30.37,SE,135,26.0,35.0,85,0.00,,,0.00,meteohub,2013-02-08 05:20:00,
2013-02-08 00:25:00,16.3,12.4,30.39,SW,214,6.0,35.0,84,0.00,,,0.00,meteohub,2013-02-08 05:25:00,
2013-02-08 00:30:00,16.9,11.8,30.38,SSE,165,20.0,35.0,80,0.00,,,0.00,meteohub,2013-02-08 05:30:00,
2013-02-08 00:36:00,16.5,12.2,30.39,SE,139,20.0,33.0,83,0.00,,,0.00,meteohub,2013-02-08 05:36:00,
2013-02-08 00:41:00,16.5,12.6,30.38,SE,140,22.0,33.0,84,0.00,,,0.00,meteohub,2013-02-08 05:41:00,
2013-02-08 00:46:00,16.5,13.1,30.37,SSE,150,12.0,30.0,86,0.00,,,0.00,meteohub,2013-02-08 05:46:00,
2013-02-08 00:51:00,16.3,13.1,30.39,NE,41,5.0,30.0,87,0.00,,,0.00,meteohub,2013-02-08 05:51:00,
2013-02-08 00:56:00,16.3,13.6,30.38,SE,144,22.0,30.0,89,0.00,,,0.00,meteohub,2013-02-08 05:56:00,
2013-02-08 01:02:00,16.2,13.5,30.38,SE,143,27.0,29.0,89,0.00,,,0.00,meteohub,2013-02-08 06:02:00,
2013-02-08 01:07:00,16.3,14.0,30.38,SE,132,9.0,30.0,90,0.00,,,0.00,meteohub,2013-02-08 06:07:00,
2013-02-08 01:12:00,16.3,14.0,30.38,SSE,157,8.0,30.0,90,0.00,,,0.00,meteohub,2013-02-08 06:12:00,
2013-02-08 01:18:00,16.0,13.6,30.37,SSE,158,10.0,30.0,90,0.00,,,0.00,meteohub,2013-02-08 06:18:00,
2013-02-08 01:23:00,15.6,13.5,30.37,SSE,163,21.0,25.0,91,0.00,,,0.00,meteohub,2013-02-08 06:23:00,
2013-02-08 01:28:00,16.0,14.0,30.36,South,189,15.0,26.0,92,0.00,,,0.00,meteohub,2013-02-08 06:28:00,
2013-02-08 01:33:00,16.0,14.0,30.36,ESE,121,20.0,26.0,92,0.00,,,0.00,meteohub,2013-02-08 06:33:00,
2013-02-08 01:38:00,16.0,14.0,30.35,SE,143,16.0,26.0,92,0.00,,,0.00,meteohub,2013-02-08 06:38:00,
2013-02-08 01:44:00,16.0,14.0,30.35,SE,142,16.0,25.0,92,0.00,,,0.00,meteohub,2013-02-08 06:44:00,
2013-02-08 01:49:00,16.2,14.2,30.34,SSE,147,8.0,28.0,92,0.00,,,0.00,meteohub,2013-02-08 06:49:00,
2013-02-08 01:54:00,16.3,14.2,30.34,SE,142,25.0,31.0,91,0.00,,,0.00,meteohub,2013-02-08 06:54:00,
2013-02-08 01:59:00,16.3,14.4,30.34,ESE,111,18.0,37.0,92,0.00,,,0.00,meteohub,2013-02-08 06:59:00,
2013-02-08 02:04:00,16.5,14.5,30.34,South,176,14.0,37.0,92,0.00,,,0.00,meteohub,2013-02-08 07:04:00,
2013-02-08 02:10:00,16.3,14.2,30.33,SE,145,24.0,37.0,91,0.00,,,0.00,meteohub,2013-02-08 07:10:00,
2013-02-08 02:15:00,16.5,14.5,30.32,SSE,160,19.0,36.0,92,0.00,,,0.00,meteohub,2013-02-08 07:15:00,
2013-02-08 02:20:00,16.7,14.7,30.33,SSE,156,18.0,37.0,92,0.00,,,0.00,meteohub,2013-02-08 07:20:00,
2013-02-08 02:26:00,16.9,14.9,30.33,ESE,123,14.0,37.0,92,0.00,,,0.00,meteohub,2013-02-08 07:26:00,
2013-02-08 02:31:00,17.1,15.1,30.32,SE,137,26.0,37.0,92,0.00,,,0.00,meteohub,2013-02-08 07:31:00,
2013-02-08 02:36:00,16.7,14.7,30.32,SSE,154,20.0,36.0,92,0.00,,,0.00,meteohub,2013-02-08 07:36:00,
2013-02-08 02:42:00,16.7,14.7,30.31,SE,141,22.0,36.0,92,0.00,,,0.00,meteohub,2013-02-08 07:42:00,
2013-02-08 02:47:00,16.9,14.9,30.30,SSW,196,15.0,36.0,92,0.00,,,0.00,meteohub,2013-02-08 07:47:00,
2013-02-08 02:52:00,16.5,14.4,30.30,SSE,164,20.0,38.0,91,0.00,,,0.00,meteohub,2013-02-08 07:52:00,
2013-02-08 02:57:00,17.1,15.4,30.30,South,169,12.0,38.0,93,0.00,,,0.00,meteohub,2013-02-08 07:57:00,
2013-02-08 03:02:00,17.4,15.4,30.29,SE,146,15.0,35.0,92,0.00,,,0.00,meteohub,2013-02-08 08:02:00,
2013-02-08 03:07:00,17.6,16.0,30.29,SSE,155,20.0,35.0,93,0.00,,,0.00,meteohub,2013-02-08 08:07:00,
2013-02-08 03:13:00,17.4,15.4,30.30,SE,137,20.0,36.0,92,0.00,,,0.00,meteohub,2013-02-08 08:13:00,
2013-02-08 03:19:00,16.9,14.9,30.29,SE,141,16.0,36.0,92,0.00,,,0.00,meteohub,2013-02-08 08:19:00,
2013-02-08 03:24:00,16.9,14.9,30.29,SE,146,20.0,36.0,92,0.00,,,0.00,meteohub,2013-02-08 08:24:00,
2013-02-08 03:30:00,16.3,14.4,30.29,SE,145,8.0,31.0,92,0.00,,,0.00,meteohub,2013-02-08 08:30:00,
2013-02-08 03:35:00,16.5,14.5,30.28,South,190,18.0,29.0,92,0.00,,,0.00,meteohub,2013-02-08 08:35:00,
2013-02-08 03:40:00,16.7,14.7,30.27,SE,137,23.0,28.0,92,0.00,,,0.00,meteohub,2013-02-08 08:40:00,
2013-02-08 03:45:00,16.9,14.9,30.27,SE,145,20.0,31.0,92,0.00,,,0.00,meteohub,2013-02-08 08:45:00,
2013-02-08 03:51:00,16.7,14.7,30.27,SSE,150,20.0,39.0,92,0.00,,,0.00,meteohub,2013-02-08 08:51:00,
2013-02-08 03:56:00,16.5,14.5,30.26,SE,140,28.0,39.0,92,0.00,,,0.00,meteohub,2013-02-08 08:56:00,
2013-02-08 04:01:00,17.2,15.3,30.25,SE,142,37.0,42.0,92,0.00,,,0.00,meteohub,2013-02-08 09:01:00,
2013-02-08 04:07:00,17.4,15.4,30.25,SSE,157,24.0,42.0,92,0.00,,,0.00,meteohub,2013-02-08 09:07:00,
2013-02-08 04:12:00,17.1,15.1,30.25,SE,142,35.0,46.0,92,0.00,,,0.00,meteohub,2013-02-08 09:12:00,
2013-02-08 04:17:00,17.4,15.4,30.26,SE,142,28.0,46.0,92,0.00,,,0.00,meteohub,2013-02-08 09:17:00,
2013-02-08 04:22:00,17.8,15.8,30.25,SE,136,39.0,46.0,92,0.00,,,0.00,meteohub,2013-02-08 09:22:00,
2013-02-08 04:27:00,17.4,15.4,30.25,SE,146,21.0,42.0,92,0.00,,,0.00,meteohub,2013-02-08 09:27:00,
2013-02-08 04:33:00,17.6,15.6,30.26,SE,138,14.0,46.0,92,0.00,,,0.00,meteohub,2013-02-08 09:33:00,
2013-02-08 04:38:00,17.6,15.6,30.25,SE,144,27.0,46.0,92,0.00,,,0.00,meteohub,2013-02-08 09:38:00,
2013-02-08 04:43:00,17.8,15.8,30.25,SE,136,32.0,46.0,92,0.00,,,0.00,meteohub,2013-02-08 09:43:00,
2013-02-08 04:48:00,17.2,15.3,30.25,SE,131,30.0,43.0,92,0.00,,,0.00,meteohub,2013-02-08 09:48:00,
2013-02-08 04:54:00,17.2,15.3,30.24,SSE,150,31.0,43.0,92,0.00,,,0.00,meteohub,2013-02-08 09:54:00,
2013-02-08 04:59:00,16.9,14.9,30.24,SE,129,28.0,41.0,92,0.00,,,0.00,meteohub,2013-02-08 09:59:00,
2013-02-08 05:04:00,17.2,15.3,30.23,SE,138,29.0,41.0,92,0.00,,,0.00,meteohub,2013-02-08 10:04:00,
2013-02-08 05:10:00,17.2,15.3,30.23,SE,141,33.0,41.0,92,0.00,,,0.00,meteohub,2013-02-08 10:10:00,
2013-02-08 05:15:00,17.1,15.1,30.24,SSE,147,28.0,46.0,92,0.00,,,0.00,meteohub,2013-02-08 10:15:00,
2013-02-08 05:20:00,16.9,14.9,30.25,SSE,162,24.0,44.0,92,0.00,,,0.00,meteohub,2013-02-08 10:20:00,
2013-02-08 05:26:00,17.2,15.3,30.24,SE,138,12.0,43.0,92,0.00,,,0.00,meteohub,2013-02-08 10:26:00,
2013-02-08 05:31:00,17.4,15.4,30.23,SSE,154,27.0,43.0,92,0.00,,,0.00,meteohub,2013-02-08 10:31:00,
2013-02-08 05:36:00,17.8,16.2,30.25,SE,144,31.0,43.0,93,0.00,,,0.00,meteohub,2013-02-08 10:36:00,
2013-02-08 05:42:00,18.0,16.0,30.25,SE,140,27.0,43.0,92,0.00,,,0.00,meteohub,2013-02-08 10:42:00,
2013-02-08 05:47:00,17.6,15.6,30.25,SE,144,26.0,43.0,92,0.00,,,0.00,meteohub,2013-02-08 10:47:00,
2013-02-08 05:52:00,17.4,15.4,30.25,SE,139,29.0,43.0,92,0.00,,,0.00,meteohub,2013-02-08 10:52:00,
2013-02-08 05:57:00,17.4,15.4,30.25,SE,145,16.0,41.0,92,0.00,,,0.00,meteohub,2013-02-08 10:57:00,
2013-02-08 06:02:00,17.6,15.6,30.24,SSE,157,18.0,41.0,92,0.00,,,0.00,meteohub,2013-02-08 11:02:00,
2013-02-08 06:08:00,18.1,16.5,30.23,SE,128,22.0,39.0,93,0.00,,,0.00,meteohub,2013-02-08 11:08:00,
2013-02-08 06:14:00,18.1,16.5,30.23,SE,135,19.0,38.0,93,0.00,,,0.00,meteohub,2013-02-08 11:14:00,
2013-02-08 06:20:00,18.0,16.0,30.23,SE,142,24.0,38.0,92,0.00,,,0.00,meteohub,2013-02-08 11:20:00,
2013-02-08 06:25:00,18.0,16.0,30.22,SE,140,23.0,36.0,92,0.00,,,0.00,meteohub,2013-02-08 11:25:00,
2013-02-08 06:31:00,18.0,16.3,30.23,SSE,149,15.0,38.0,93,0.00,,,0.00,meteohub,2013-02-08 11:31:00,
2013-02-08 06:36:00,18.1,16.5,30.21,SSE,151,30.0,39.0,93,0.00,,,0.00,meteohub,2013-02-08 11:36:00,
2013-02-08 06:41:00,18.3,16.7,30.22,SSE,159,32.0,39.0,93,0.00,,,0.00,meteohub,2013-02-08 11:41:00,
2013-02-08 06:46:00,18.0,16.0,30.21,SSE,150,27.0,39.0,92,0.00,,,0.00,meteohub,2013-02-08 11:46:00,
2013-02-08 06:51:00,17.8,15.8,30.22,SE,136,20.0,38.0,92,0.00,,,0.00,meteohub,2013-02-08 11:51:00,
2013-02-08 06:57:00,18.0,16.3,30.21,SE,126,27.0,38.0,93,0.00,,,0.00,meteohub,2013-02-08 11:57:00,
2013-02-08 07:02:00,18.3,16.7,30.22,ESE,121,25.0,38.0,93,0.00,,,0.00,meteohub,2013-02-08 12:02:00,
2013-02-08 07:07:00,18.0,16.0,30.22,SE,141,27.0,35.0,92,0.00,,,0.00,meteohub,2013-02-08 12:07:00,
2013-02-08 07:12:00,16.9,14.9,30.22,SE,132,22.0,35.0,92,0.00,,,0.00,meteohub,2013-02-08 12:12:00,
2013-02-08 07:17:00,16.7,14.7,30.22,SE,127,28.0,35.0,92,0.00,,,0.00,meteohub,2013-02-08 12:17:00,
2013-02-08 07:22:00,16.9,15.3,30.22,SE,139,8.0,35.0,93,0.00,,,0.00,meteohub,2013-02-08 12:22:00,
2013-02-08 07:27:00,16.9,15.3,30.21,SE,138,11.0,29.0,93,0.00,,,0.00,meteohub,2013-02-08 12:27:00,
2013-02-08 07:32:00,16.2,14.0,30.22,SE,146,21.0,30.0,91,0.00,,,0.00,meteohub,2013-02-08 12:32:00,
2013-02-08 07:37:00,17.2,15.6,30.21,SE,146,16.0,30.0,93,0.00,,,0.00,meteohub,2013-02-08 12:37:00,
2013-02-08 07:43:00,16.5,14.4,30.22,SE,140,16.0,30.0,91,0.00,,,0.00,meteohub,2013-02-08 12:43:00,
2013-02-08 07:48:00,16.5,14.5,30.21,SE,142,18.0,30.0,92,0.00,,,0.00,meteohub,2013-02-08 12:48:00,
2013-02-08 07:53:00,16.9,14.9,30.21,ESE,121,21.0,30.0,92,0.00,,,0.00,meteohub,2013-02-08 12:53:00,
2013-02-08 07:59:00,18.1,16.5,30.21,SE,131,24.0,25.0,93,0.00,,,0.00,meteohub,2013-02-08 12:59:00,
2013-02-08 08:04:00,18.5,16.9,30.22,SE,143,18.0,31.0,93,0.00,,,0.00,meteohub,2013-02-08 13:04:00,
2013-02-08 08:10:00,18.7,17.1,30.21,SE,144,21.0,31.0,93,0.00,,,0.00,meteohub,2013-02-08 13:10:00,
2013-02-08 08:15:00,17.8,15.8,30.21,SE,143,15.0,31.0,92,0.00,,,0.00,meteohub,2013-02-08 13:15:00,
2013-02-08 08:20:00,17.4,15.4,30.20,SE,129,11.0,21.0,92,0.00,,,0.00,meteohub,2013-02-08 13:20:00,
2013-02-08 08:26:00,17.8,15.8,30.21,SSE,149,10.0,20.0,92,0.00,,,0.00,meteohub,2013-02-08 13:26:00,
2013-02-08 08:31:00,17.8,16.2,30.20,SSE,153,11.0,21.0,93,0.00,,,0.00,meteohub,2013-02-08 13:31:00,
2013-02-08 08:36:00,17.8,16.2,30.19,SE,130,14.0,21.0,93,0.00,,,0.00,meteohub,2013-02-08 13:36:00,
2013-02-08 08:42:00,18.5,17.1,30.20,South,174,10.0,21.0,94,0.00,,,0.00,meteohub,2013-02-08 13:42:00,
2013-02-08 08:47:00,19.2,17.6,30.19,SE,142,16.0,22.0,93,0.00,,,0.00,meteohub,2013-02-08 13:47:00,
2013-02-08 08:52:00,19.6,18.0,30.19,SSE,165,5.0,24.0,93,0.00,,,0.00,meteohub,2013-02-08 13:52:00,
2013-02-08 08:57:00,19.9,18.5,30.18,SE,144,10.0,24.0,94,0.00,,,0.00,meteohub,2013-02-08 13:57:00,
2013-02-08 09:02:00,19.9,18.3,30.19,SE,146,13.0,24.0,93,0.00,,,0.00,meteohub,2013-02-08 14:02:00,
2013-02-08 09:07:00,20.5,19.0,30.19,SE,139,10.0,19.0,94,0.00,,,0.00,meteohub,2013-02-08 14:07:00,
2013-02-08 09:12:00,20.3,18.7,30.18,SSE,148,14.0,24.0,93,0.00,,,0.00,meteohub,2013-02-08 14:12:00,
2013-02-08 09:17:00,20.1,18.5,30.18,SE,142,15.0,24.0,93,0.00,,,0.00,meteohub,2013-02-08 14:17:00,
2013-02-08 09:22:00,19.9,18.3,30.18,East,100,9.0,24.0,93,0.00,,,0.00,meteohub,2013-02-08 14:22:00,
2013-02-08 09:27:00,20.1,18.7,30.17,SSE,160,14.0,24.0,94,0.00,,,0.00,meteohub,2013-02-08 14:27:00,
2013-02-08 09:32:00,19.6,18.0,30.18,SE,132,18.0,24.0,93,0.00,,,0.00,meteohub,2013-02-08 14:32:00,
2013-02-08 09:37:00,19.4,17.8,30.18,SE,130,16.0,24.0,93,0.00,,,0.00,meteohub,2013-02-08 14:37:00,
2013-02-08 09:42:00,19.0,17.4,30.17,SE,131,11.0,22.0,93,0.00,,,0.00,meteohub,2013-02-08 14:42:00,
2013-02-08 09:47:00,19.6,18.0,30.17,SSE,159,12.0,20.0,93,0.00,,,0.00,meteohub,2013-02-08 14:47:00,
2013-02-08 09:52:00,19.6,18.0,30.17,ESE,113,16.0,20.0,93,0.00,,,0.00,meteohub,2013-02-08 14:52:00,
2013-02-08 09:57:00,19.6,18.0,30.16,SE,134,20.0,24.0,93,0.00,,,0.00,meteohub,2013-02-08 14:57:00,
2013-02-08 10:02:00,19.8,18.1,30.16,ESE,116,18.0,24.0,93,0.00,,,0.00,meteohub,2013-02-08 15:02:00,
2013-02-08 10:07:00,19.9,18.3,30.16,SE,141,16.0,24.0,93,0.00,,,0.00,meteohub,2013-02-08 15:07:00,
2013-02-08 10:12:00,20.5,19.0,30.15,SSE,152,21.0,25.0,94,0.00,,,0.00,meteohub,2013-02-08 15:12:00,
2013-02-08 10:17:00,20.3,18.7,30.15,SSE,163,20.0,25.0,93,0.00,,,0.00,meteohub,2013-02-08 15:17:00,
2013-02-08 10:22:00,20.1,18.5,30.15,SE,136,14.0,25.0,93,0.00,,,0.00,meteohub,2013-02-08 15:22:00,
2013-02-08 10:28:00,20.5,18.9,30.15,SE,131,15.0,25.0,93,0.00,,,0.00,meteohub,2013-02-08 15:28:00,
2013-02-08 10:33:00,20.5,19.0,30.15,SE,134,14.0,22.0,94,0.00,,,0.00,meteohub,2013-02-08 15:33:00,
2013-02-08 10:38:00,20.3,18.7,30.15,SSE,156,16.0,21.0,93,0.00,,,0.00,meteohub,2013-02-08 15:38:00,
2013-02-08 10:43:00,20.5,19.0,30.15,South,170,20.0,21.0,94,0.00,,,0.00,meteohub,2013-02-08 15:43:00,
2013-02-08 10:49:00,20.7,19.2,30.15,South,169,6.0,21.0,94,0.00,,,0.00,meteohub,2013-02-08 15:49:00,
2013-02-08 10:54:00,20.8,19.2,30.14,ESE,115,15.0,22.0,93,0.00,,,0.00,meteohub,2013-02-08 15:54:00,
2013-02-08 10:59:00,20.8,19.2,30.14,SE,144,20.0,22.0,93,0.00,,,0.00,meteohub,2013-02-08 15:59:00,
2013-02-08 11:04:00,21.0,19.4,30.13,ESE,118,10.0,23.0,93,0.00,,,0.00,meteohub,2013-02-08 16:04:00,
2013-02-08 11:09:00,21.0,19.6,30.13,SSE,162,15.0,23.0,94,0.00,,,0.00,meteohub,2013-02-08 16:09:00,
2013-02-08 11:15:00,21.2,19.8,30.12,SSE,167,14.0,25.0,94,0.00,,,0.00,meteohub,2013-02-08 16:15:00,
2013-02-08 11:20:00,21.4,19.9,30.12,South,169,10.0,25.0,94,0.00,,,0.00,meteohub,2013-02-08 16:20:00,
2013-02-08 11:25:00,21.0,19.6,30.11,SSE,161,13.0,25.0,94,0.00,,,0.00,meteohub,2013-02-08 16:25:00,
2013-02-08 11:31:00,20.8,19.4,30.11,SSE,149,15.0,25.0,94,0.00,,,0.00,meteohub,2013-02-08 16:31:00,
2013-02-08 11:36:00,21.0,19.4,30.10,SSE,162,12.0,25.0,93,0.00,,,0.00,meteohub,2013-02-08 16:36:00,
2013-02-08 11:41:00,21.0,19.6,30.09,SE,144,20.0,27.0,94,0.00,,,0.00,meteohub,2013-02-08 16:41:00,
2013-02-08 11:47:00,20.8,19.2,30.08,ESE,111,19.0,27.0,93,0.00,,,0.00,meteohub,2013-02-08 16:47:00,
2013-02-08 11:52:00,20.7,19.0,30.08,SSE,148,19.0,29.0,93,0.00,,,0.00,meteohub,2013-02-08 16:52:00,
2013-02-08 11:57:00,20.5,18.9,30.07,SE,144,22.0,29.0,93,0.00,,,0.00,meteohub,2013-02-08 16:57:00,
2013-02-08 12:02:00,20.5,19.0,30.07,SW,229,11.0,29.0,94,0.00,,,0.00,meteohub,2013-02-08 17:02:00,
2013-02-08 12:08:00,20.5,19.0,30.07,SE,142,14.0,28.0,94,0.00,,,0.00,meteohub,2013-02-08 17:08:00,
2013-02-08 12:13:00,20.3,18.7,30.06,SSE,148,22.0,28.0,93,0.00,,,0.00,meteohub,2013-02-08 17:13:00,
2013-02-08 12:18:00,20.5,18.9,30.05,SSE,154,18.0,27.0,93,0.00,,,0.00,meteohub,2013-02-08 17:18:00,
2013-02-08 12:23:00,20.1,18.5,30.06,SE,140,19.0,26.0,93,0.00,,,0.00,meteohub,2013-02-08 17:23:00,
2013-02-08 12:29:00,19.8,18.1,30.06,SE,134,18.0,29.0,93,0.00,,,0.00,meteohub,2013-02-08 17:29:00,
2013-02-08 12:35:00,19.0,17.4,30.06,SSE,150,20.0,29.0,93,0.00,,,0.00,meteohub,2013-02-08 17:35:00,
2013-02-08 12:40:00,19.2,17.6,30.05,SE,139,12.0,29.0,93,0.00,,,0.00,meteohub,2013-02-08 17:40:00,
2013-02-08 12:45:00,19.0,17.4,30.05,SE,137,19.0,24.0,93,0.00,,,0.00,meteohub,2013-02-08 17:45:00,
2013-02-08 12:50:00,19.0,17.4,30.05,ESE,121,13.0,24.0,93,0.00,,,0.00,meteohub,2013-02-08 17:50:00,
2013-02-08 12:57:00,18.9,17.2,30.05,South,184,14.0,22.0,93,0.00,,,0.00,meteohub,2013-02-08 17:57:00,
2013-02-08 13:02:00,18.9,17.2,30.04,SSE,157,7.0,22.0,93,0.00,,,0.00,meteohub,2013-02-08 18:02:00,
2013-02-08 13:07:00,18.9,17.2,30.04,South,177,13.0,21.0,93,0.00,,,0.00,meteohub,2013-02-08 18:07:00,
2013-02-08 13:13:00,18.9,17.2,30.04,SE,130,12.0,21.0,93,0.00,,,0.00,meteohub,2013-02-08 18:13:00,
2013-02-08 13:18:00,18.9,17.2,30.04,SE,138,12.0,21.0,93,0.00,,,0.00,meteohub,2013-02-08 18:18:00,
2013-02-08 13:23:00,18.9,17.2,30.03,ESE,109,11.0,21.0,93,0.00,,,0.00,meteohub,2013-02-08 18:23:00,
2013-02-08 13:29:00,18.9,17.2,30.02,SSE,147,14.0,19.0,93,0.00,,,0.00,meteohub,2013-02-08 18:29:00,
2013-02-08 13:35:00,19.0,17.4,30.01,SE,145,12.0,19.0,93,0.00,,,0.00,meteohub,2013-02-08 18:35:00,
2013-02-08 13:41:00,19.0,17.4,30.00,SSE,148,16.0,19.0,93,0.00,,,0.00,meteohub,2013-02-08 18:41:00,
2013-02-08 13:47:00,19.2,17.6,30.00,SSE,158,16.0,24.0,93,0.00,,,0.00,meteohub,2013-02-08 18:47:00,
2013-02-08 13:52:00,19.2,17.6,29.99,SSE,148,21.0,26.0,93,0.00,,,0.00,meteohub,2013-02-08 18:52:00,
2013-02-08 13:57:00,19.2,17.6,29.99,SE,142,20.0,26.0,93,0.00,,,0.00,meteohub,2013-02-08 18:57:00,
2013-02-08 14:02:00,19.4,17.8,29.99,SE,143,15.0,26.0,93,0.00,,,0.00,meteohub,2013-02-08 19:02:00,
2013-02-08 14:07:00,19.6,18.0,29.98,ESE,123,22.0,26.0,93,0.00,,,0.00,meteohub,2013-02-08 19:07:00,
2013-02-08 14:13:00,19.6,18.0,29.99,ESE,115,12.0,26.0,93,0.00,,,0.00,meteohub,2013-02-08 19:13:00,
2013-02-08 14:18:00,19.8,18.1,29.98,SSE,156,18.0,23.0,93,0.00,,,0.00,meteohub,2013-02-08 19:18:00,
2013-02-08 14:23:00,19.8,18.3,29.98,SSE,149,18.0,23.0,94,0.00,,,0.00,meteohub,2013-02-08 19:23:00,
2013-02-08 14:29:00,19.9,18.5,29.98,SE,134,22.0,25.0,94,0.00,,,0.00,meteohub,2013-02-08 19:29:00,
2013-02-08 14:34:00,19.9,18.5,29.98,SSE,149,20.0,25.0,94,0.00,,,0.00,meteohub,2013-02-08 19:34:00,
2013-02-08 14:39:00,19.9,18.5,29.98,SE,126,18.0,25.0,94,0.00,,,0.00,meteohub,2013-02-08 19:39:00,
2013-02-08 14:45:00,19.9,18.5,29.98,SE,130,20.0,24.0,94,0.00,,,0.00,meteohub,2013-02-08 19:45:00,
2013-02-08 14:51:00,19.9,18.5,29.98,SE,141,21.0,24.0,94,0.00,,,0.00,meteohub,2013-02-08 19:51:00,
2013-02-08 14:56:00,19.9,18.3,29.96,SE,140,13.0,27.0,93,0.00,,,0.00,meteohub,2013-02-08 19:56:00,
2013-02-08 15:01:00,19.9,18.5,29.96,South,171,22.0,27.0,94,0.00,,,0.00,meteohub,2013-02-08 20:01:00,
2013-02-08 15:07:00,19.9,18.3,29.96,SSE,154,23.0,25.0,93,0.00,,,0.00,meteohub,2013-02-08 20:07:00,
2013-02-08 15:12:00,20.1,18.7,29.96,SE,143,16.0,26.0,94,0.00,,,0.00,meteohub,2013-02-08 20:12:00,
2013-02-08 15:17:00,19.9,18.3,29.94,SE,142,18.0,26.0,93,0.00,,,0.00,meteohub,2013-02-08 20:17:00,
2013-02-08 15:22:00,19.9,18.5,29.94,SSE,167,19.0,26.0,94,0.00,,,0.00,meteohub,2013-02-08 20:22:00,
2013-02-08 15:27:00,19.9,18.5,29.94,SE,144,18.0,31.0,94,0.00,,,0.00,meteohub,2013-02-08 20:27:00,
2013-02-08 15:32:00,19.9,18.5,29.93,SE,133,16.0,31.0,94,0.00,,,0.00,meteohub,2013-02-08 20:32:00,
2013-02-08 15:37:00,19.9,18.3,29.93,SSE,148,22.0,27.0,93,0.00,,,0.00,meteohub,2013-02-08 20:37:00,
2013-02-08 15:42:00,19.8,18.3,29.93,SE,146,19.0,27.0,94,0.00,,,0.00,meteohub,2013-02-08 20:42:00,
2013-02-08 15:47:00,19.8,18.3,29.93,South,172,16.0,30.0,94,0.00,,,0.00,meteohub,2013-02-08 20:47:00,
2013-02-08 15:52:00,19.8,18.1,29.93,SSE,159,19.0,30.0,93,0.00,,,0.00,meteohub,2013-02-08 20:52:00,
2013-02-08 15:57:00,19.8,18.1,29.93,SE,128,23.0,30.0,93,0.00,,,0.00,meteohub,2013-02-08 20:57:00,
2013-02-08 16:02:00,19.8,18.1,29.92,ESE,115,27.0,27.0,93,0.00,,,0.00,meteohub,2013-02-08 21:02:00,
2013-02-08 16:07:00,19.8,18.1,29.92,SE,136,18.0,28.0,93,0.00,,,0.00,meteohub,2013-02-08 21:07:00,
2013-02-08 16:13:00,19.8,18.1,29.92,SE,142,22.0,28.0,93,0.00,,,0.00,meteohub,2013-02-08 21:13:00,
2013-02-08 16:18:00,19.8,18.1,29.92,SSE,150,15.0,28.0,93,0.00,,,0.00,meteohub,2013-02-08 21:18:00,
2013-02-08 16:23:00,19.8,18.1,29.91,SSE,150,24.0,28.0,93,0.00,,,0.00,meteohub,2013-02-08 21:23:00,
2013-02-08 16:30:00,19.8,18.1,29.92,SE,141,19.0,26.0,93,0.00,,,0.00,meteohub,2013-02-08 21:30:00,
2013-02-08 16:35:00,19.8,18.1,29.91,SSE,165,18.0,27.0,93,0.00,,,0.00,meteohub,2013-02-08 21:35:00,
2013-02-08 16:41:00,19.6,18.0,29.91,SE,140,15.0,25.0,93,0.00,,,0.00,meteohub,2013-02-08 21:41:00,
2013-02-08 16:46:00,19.6,18.0,29.91,SE,137,19.0,25.0,93,0.00,,,0.00,meteohub,2013-02-08 21:46:00,
2013-02-08 16:51:00,19.4,17.8,29.91,SE,146,19.0,24.0,93,0.00,,,0.00,meteohub,2013-02-08 21:51:00,
2013-02-08 16:56:00,19.2,17.6,29.90,SSE,155,21.0,25.0,93,0.00,,,0.00,meteohub,2013-02-08 21:56:00,
2013-02-08 17:02:00,19.2,17.6,29.90,SE,136,21.0,26.0,93,0.00,,,0.00,meteohub,2013-02-08 22:02:00,
2013-02-08 17:07:00,19.2,17.6,29.90,ESE,115,18.0,27.0,93,0.00,,,0.00,meteohub,2013-02-08 22:07:00,
2013-02-08 17:12:00,19.0,17.4,29.91,SSE,149,18.0,27.0,93,0.00,,,0.00,meteohub,2013-02-08 22:12:00,
2013-02-08 17:18:00,19.0,17.4,29.89,South,171,19.0,27.0,93,0.00,,,0.00,meteohub,2013-02-08 22:18:00,
2013-02-08 17:23:00,18.9,17.2,29.89,SE,128,14.0,26.0,93,0.00,,,0.00,meteohub,2013-02-08 22:23:00,
2013-02-08 17:28:00,18.9,17.2,29.89,SE,130,20.0,26.0,93,0.00,,,0.00,meteohub,2013-02-08 22:28:00,
2013-02-08 17:34:00,18.9,17.2,29.88,South,170,19.0,27.0,93,0.00,,,0.00,meteohub,2013-02-08 22:34:00,
2013-02-08 17:39:00,18.7,17.1,29.88,SSE,161,21.0,28.0,93,0.00,,,0.00,meteohub,2013-02-08 22:39:00,
2013-02-08 17:44:00,18.7,17.1,29.89,SE,132,11.0,28.0,93,0.00,,,0.00,meteohub,2013-02-08 22:44:00,
2013-02-08 17:50:00,18.5,16.9,29.88,SSE,162,18.0,25.0,93,0.00,,,0.00,meteohub,2013-02-08 22:50:00,
2013-02-08 17:55:00,18.3,16.7,29.88,South,174,19.0,24.0,93,0.00,,,0.00,meteohub,2013-02-08 22:55:00,
2013-02-08 18:00:00,18.3,16.7,29.89,SSE,157,14.0,24.0,93,0.00,,,0.00,meteohub,2013-02-08 23:00:00,
2013-02-08 18:05:00,18.1,16.5,29.88,SSE,152,15.0,21.0,93,0.00,,,0.00,meteohub,2013-02-08 23:05:00,
2013-02-08 18:11:00,18.1,16.5,29.88,SSE,161,14.0,21.0,93,0.00,,,0.00,meteohub,2013-02-08 23:11:00,
2013-02-08 18:16:00,18.0,16.3,29.88,SE,130,15.0,21.0,93,0.00,,,0.00,meteohub,2013-02-08 23:16:00,
2013-02-08 18:21:00,18.0,16.3,29.89,SE,136,14.0,21.0,93,0.00,,,0.00,meteohub,2013-02-08 23:21:00,
2013-02-08 18:26:00,17.6,16.0,29.89,South,173,13.0,21.0,93,0.00,,,0.00,meteohub,2013-02-08 23:26:00,
2013-02-08 18:32:00,17.2,15.3,29.88,SE,146,12.0,19.0,92,0.00,,,0.00,meteohub,2013-02-08 23:32:00,
2013-02-08 18:37:00,16.9,14.9,29.89,SE,130,10.0,18.0,92,0.00,,,0.00,meteohub,2013-02-08 23:37:00,
2013-02-08 18:42:00,16.9,15.3,29.89,ESE,111,12.0,21.0,93,0.00,,,0.00,meteohub,2013-02-08 23:42:00,
2013-02-08 18:47:00,16.9,14.9,29.88,ESE,121,13.0,21.0,92,0.00,,,0.00,meteohub,2013-02-08 23:47:00,
2013-02-08 18:52:00,16.7,14.7,29.88,SSE,152,12.0,20.0,92,0.00,,,0.00,meteohub,2013-02-08 23:52:00,
2013-02-08 18:57:00,16.7,15.1,29.88,SE,127,15.0,21.0,93,0.00,,,0.00,meteohub,2013-02-08 23:57:00,
2013-02-08 19:02:00,16.7,15.1,29.88,SE,136,11.0,21.0,93,0.00,,,0.00,meteohub,2013-02-09 00:02:00,
2013-02-08 19:07:00,16.5,14.5,29.88,South,171,15.0,21.0,92,0.00,,,0.00,meteohub,2013-02-09 00:07:00,
2013-02-08 19:12:00,16.3,14.4,29.87,SSE,168,18.0,22.0,92,0.00,,,0.00,meteohub,2013-02-09 00:12:00,
2013-02-08 19:17:00,16.3,14.4,29.87,SE,135,12.0,22.0,92,0.00,,,0.00,meteohub,2013-02-09 00:17:00,
2013-02-08 19:22:00,16.3,14.4,29.86,SSE,147,14.0,22.0,92,0.00,,,0.00,meteohub,2013-02-09 00:22:00,
2013-02-08 19:27:00,16.2,14.2,29.87,South,179,13.0,23.0,92,0.00,,,0.00,meteohub,2013-02-09 00:27:00,
2013-02-08 19:33:00,16.2,14.2,29.86,SE,137,13.0,23.0,92,0.00,,,0.00,meteohub,2013-02-09 00:33:00,
2013-02-08 19:38:00,16.2,14.2,29.86,SE,146,16.0,23.0,92,0.00,,,0.00,meteohub,2013-02-09 00:38:00,
2013-02-08 19:43:00,16.2,14.2,29.86,SSE,161,13.0,21.0,92,0.00,,,0.00,meteohub,2013-02-09 00:43:00,
2013-02-08 19:49:00,16.0,14.0,29.86,SW,214,9.0,21.0,92,0.00,,,0.00,meteohub,2013-02-09 00:49:00,
2013-02-08 19:54:00,15.8,13.8,29.86,SE,145,13.0,22.0,92,0.00,,,0.00,meteohub,2013-02-09 00:54:00,
2013-02-08 19:59:00,16.0,14.0,29.85,SE,132,10.0,22.0,92,0.00,,,0.00,meteohub,2013-02-09 00:59:00,
2013-02-08 20:04:00,16.2,14.2,29.86,SSE,153,9.0,20.0,92,0.00,,,0.00,meteohub,2013-02-09 01:04:00,
2013-02-08 20:09:00,16.3,14.4,29.86,SSE,148,11.0,20.0,92,0.00,,,0.00,meteohub,2013-02-09 01:09:00,
2013-02-08 20:15:00,16.5,14.9,29.86,SSW,192,7.0,18.0,93,0.00,,,0.00,meteohub,2013-02-09 01:15:00,
2013-02-08 20:20:00,16.5,14.9,29.86,SE,136,8.0,18.0,93,0.00,,,0.00,meteohub,2013-02-09 01:20:00,
2013-02-08 20:26:00,16.5,14.9,29.86,SE,145,13.0,19.0,93,0.00,,,0.00,meteohub,2013-02-09 01:26:00,
2013-02-08 20:31:00,16.5,14.9,29.85,SSE,153,12.0,19.0,93,0.00,,,0.00,meteohub,2013-02-09 01:31:00,
2013-02-08 20:36:00,16.5,14.5,29.85,SE,136,10.0,19.0,92,0.00,,,0.00,meteohub,2013-02-09 01:36:00,
2013-02-08 20:42:00,16.3,14.4,29.84,SE,124,10.0,18.0,92,0.00,,,0.00,meteohub,2013-02-09 01:42:00,
2013-02-08 20:47:00,16.3,14.7,29.85,SE,141,3.0,18.0,93,0.00,,,0.00,meteohub,2013-02-09 01:47:00,
2013-02-08 20:52:00,16.3,14.7,29.85,SE,136,4.0,20.0,93,0.00,,,0.00,meteohub,2013-02-09 01:52:00,
2013-02-08 20:57:00,16.5,14.9,29.86,ESE,122,0.0,20.0,93,0.00,,,0.00,meteohub,2013-02-09 01:57:00,
2013-02-08 21:02:00,16.5,14.9,29.86,ENE,61,2.0,13.0,93,0.00,,,0.00,meteohub,2013-02-09 02:02:00,
2013-02-08 21:07:00,16.3,14.7,29.86,North,355,3.0,11.0,93,0.00,,,0.00,meteohub,2013-02-09 02:07:00,
2013-02-08 21:12:00,16.3,14.4,29.86,NNW,331,7.0,7.0,92,0.00,,,0.00,meteohub,2013-02-09 02:12:00,
2013-02-08 21:17:00,16.2,14.2,29.86,NNW,336,7.0,9.0,92,0.00,,,0.00,meteohub,2013-02-09 02:17:00,
2013-02-08 21:22:00,16.0,14.0,29.86,NNW,343,6.0,10.0,92,0.00,,,0.00,meteohub,2013-02-09 02:22:00,
2013-02-08 21:27:00,15.6,13.6,29.86,NNW,339,10.0,11.0,92,0.00,,,0.00,meteohub,2013-02-09 02:27:00,
2013-02-08 21:32:00,15.4,13.5,29.86,NNW,329,9.0,12.0,92,0.00,,,0.00,meteohub,2013-02-09 02:32:00,
2013-02-08 21:37:00,15.3,13.3,29.86,NNW,331,6.0,12.0,92,0.00,,,0.00,meteohub,2013-02-09 02:37:00,
2013-02-08 21:42:00,15.3,13.3,29.86,NNW,344,5.0,12.0,92,0.00,,,0.00,meteohub,2013-02-09 02:42:00,
2013-02-08 21:47:00,15.1,13.1,29.86,NNW,331,9.0,12.0,92,0.00,,,0.00,meteohub,2013-02-09 02:47:00,
2013-02-08 21:52:00,15.1,13.1,29.86,NNW,343,3.0,14.0,92,0.00,,,0.00,meteohub,2013-02-09 02:52:00,
2013-02-08 21:57:00,15.1,13.1,29.85,North,0,8.0,14.0,92,0.00,,,0.00,meteohub,2013-02-09 02:57:00,
2013-02-08 22:02:00,15.1,13.1,29.85,NNW,348,9.0,14.0,92,0.00,,,0.00,meteohub,2013-02-09 03:02:00,
2013-02-08 22:07:00,15.1,13.1,29.85,NW,325,9.0,13.0,92,0.00,,,0.00,meteohub,2013-02-09 03:07:00,
2013-02-08 22:12:00,15.1,13.1,29.85,NW,325,5.0,13.0,92,0.00,,,0.00,meteohub,2013-02-09 03:12:00,
2013-02-08 22:17:00,15.1,13.1,29.85,NW,325,13.0,13.0,92,0.00,,,0.00,meteohub,2013-02-09 03:17:00,
2013-02-08 22:22:00,15.1,13.1,29.85,NNW,344,5.0,14.0,92,0.00,,,0.00,meteohub,2013-02-09 03:22:00,
2013-02-08 22:27:00,15.1,13.1,29.84,NNW,336,10.0,14.0,92,0.00,,,0.00,meteohub,2013-02-09 03:27:00,
2013-02-08 22:32:00,15.1,13.1,29.84,NNW,327,10.0,14.0,92,0.00,,,0.00,meteohub,2013-02-09 03:32:00,
2013-02-08 22:37:00,15.1,13.1,29.84,NNW,330,9.0,12.0,92,0.00,,,0.00,meteohub,2013-02-09 03:37:00,
2013-02-08 22:42:00,15.1,13.1,29.84,North,349,6.0,15.0,92,0.00,,,0.00,meteohub,2013-02-09 03:42:00,
2013-02-08 22:47:00,15.1,13.1,29.84,NW,305,7.0,15.0,92,0.00,,,0.00,meteohub,2013-02-09 03:47:00,
2013-02-08 22:52:00,15.1,13.1,29.84,NNW,341,12.0,15.0,92,0.00,,,0.00,meteohub,2013-02-09 03:52:00,
2013-02-08 22:58:00,15.1,13.1,29.84,NNW,330,8.0,15.0,92,0.00,,,0.00,meteohub,2013-02-09 03:58:00,
2013-02-08 23:03:00,15.1,13.1,29.84,WNW,296,6.0,16.0,92,0.00,,,0.00,meteohub,2013-02-09 04:03:00,
2013-02-08 23:08:00,14.9,12.9,29.84,NNW,345,9.0,16.0,92,0.00,,,0.00,meteohub,2013-02-09 04:08:00,
2013-02-08 23:13:00,14.7,12.7,29.84,WNW,302,10.0,16.0,92,0.00,,,0.00,meteohub,2013-02-09 04:13:00,
2013-02-08 23:18:00,14.7,12.7,29.85,WNW,302,6.0,16.0,92,0.00,,,0.00,meteohub,2013-02-09 04:18:00,
2013-02-08 23:24:00,14.5,12.6,29.85,NNW,329,11.0,14.0,92,0.00,,,0.00,meteohub,2013-02-09 04:24:00,
2013-02-08 23:29:00,14.5,12.6,29.85,NNW,332,7.0,14.0,92,0.00,,,0.00,meteohub,2013-02-09 04:29:00,
2013-02-08 23:34:00,14.5,12.6,29.85,North,5,13.0,14.0,92,0.00,,,0.00,meteohub,2013-02-09 04:34:00,
2013-02-08 23:40:00,14.4,12.4,29.85,NNW,345,8.0,15.0,92,0.00,,,0.00,meteohub,2013-02-09 04:40:00,
2013-02-08 23:45:00,14.4,12.4,29.85,NNW,329,6.0,18.0,92,0.00,,,0.00,meteohub,2013-02-09 04:45:00,
2013-02-08 23:51:00,14.4,12.4,29.86,WNW,283,7.0,18.0,92,0.00,,,0.00,meteohub,2013-02-09 04:51:00,
2013-02-08 23:56:00,14.4,12.4,29.86,NNW,327,8.0,16.0,92,0.00,,,0.00,meteohub,2013-02-09 04:56:00,